sensor_id;sensor_type;location;lat;lon;timestamp;P1;durP1;ratioP1;P2;durP2;ratioP2
68225;SDS011;55045;49.410;11.030;2023-04-25T00:01:53;5.50;;;4.70;;
68225;SDS011;55045;49.410;11.030;2023-04-25T00:04:56;6.30;;;4.78;;
68225;SDS011;55045;49.410;11.030;2023-04-25T00:08:02;5.57;;;4.97;;
68225;SDS011;55045;49.410;11.030;2023-04-25T00:11:06;6.75;;;5.00;;
68225;SDS011;55045;49.410;11.030;2023-04-25T00:14:09;6.88;;;4.72;;
68225;SDS011;55045;49.410;11.030;2023-04-25T00:17:12;7.15;;;4.70;;
68225;SDS011;55045;49.410;11.030;2023-04-25T00:20:16;5.40;;;4.22;;
68225;SDS011;55045;49.410;11.030;2023-04-25T00:23:21;6.68;;;4.72;;
68225;SDS011;55045;49.410;11.030;2023-04-25T00:26:25;8.63;;;4.75;;
68225;SDS011;55045;49.410;11.030;2023-04-25T00:29:29;7.28;;;4.63;;
68225;SDS011;55045;49.410;11.030;2023-04-25T00:32:33;6.32;;;5.10;;
68225;SDS011;55045;49.410;11.030;2023-04-25T00:35:36;6.32;;;4.78;;
68225;SDS011;55045;49.410;11.030;2023-04-25T00:38:41;8.25;;;5.38;;
68225;SDS011;55045;49.410;11.030;2023-04-25T00:41:44;6.38;;;4.25;;
68225;SDS011;55045;49.410;11.030;2023-04-25T00:44:49;5.25;;;4.30;;
68225;SDS011;55045;49.410;11.030;2023-04-25T00:47:52;8.40;;;4.90;;
68225;SDS011;55045;49.410;11.030;2023-04-25T00:50:57;7.05;;;4.45;;
68225;SDS011;55045;49.410;11.030;2023-04-25T00:54:03;6.82;;;5.32;;
68225;SDS011;55045;49.410;11.030;2023-04-25T00:57:06;7.05;;;5.30;;
68225;SDS011;55045;49.410;11.030;2023-04-25T01:00:10;6.15;;;5.00;;
68225;SDS011;55045;49.410;11.030;2023-04-25T01:03:15;7.40;;;5.75;;
68225;SDS011;55045;49.410;11.030;2023-04-25T01:06:21;6.55;;;5.57;;
68225;SDS011;55045;49.410;11.030;2023-04-25T01:09:26;7.18;;;5.00;;
68225;SDS011;55045;49.410;11.030;2023-04-25T01:12:30;6.88;;;5.22;;
68225;SDS011;55045;49.410;11.030;2023-04-25T01:15:33;6.43;;;4.90;;
68225;SDS011;55045;49.410;11.030;2023-04-25T01:18:38;7.85;;;5.05;;
68225;SDS011;55045;49.410;11.030;2023-04-25T01:21:43;9.57;;;5.13;;
68225;SDS011;55045;49.410;11.030;2023-04-25T01:24:47;6.97;;;5.38;;
68225;SDS011;55045;49.410;11.030;2023-04-25T01:27:51;6.70;;;5.15;;
68225;SDS011;55045;49.410;11.030;2023-04-25T01:30:55;7.15;;;4.82;;
68225;SDS011;55045;49.410;11.030;2023-04-25T01:33:59;6.88;;;4.90;;
68225;SDS011;55045;49.410;11.030;2023-04-25T01:37:04;7.43;;;5.18;;
68225;SDS011;55045;49.410;11.030;2023-04-25T01:40:08;5.57;;;4.80;;
68225;SDS011;55045;49.410;11.030;2023-04-25T01:43:13;6.07;;;4.90;;
68225;SDS011;55045;49.410;11.030;2023-04-25T01:46:16;7.00;;;5.38;;
68225;SDS011;55045;49.410;11.030;2023-04-25T01:49:20;6.97;;;5.32;;
68225;SDS011;55045;49.410;11.030;2023-04-25T01:52:26;6.93;;;5.35;;
68225;SDS011;55045;49.410;11.030;2023-04-25T01:55:31;7.45;;;5.10;;
68225;SDS011;55045;49.410;11.030;2023-04-25T01:58:42;7.22;;;5.40;;
68225;SDS011;55045;49.410;11.030;2023-04-25T02:02:05;7.25;;;4.93;;
68225;SDS011;55045;49.410;11.030;2023-04-25T02:05:10;7.53;;;4.88;;
68225;SDS011;55045;49.410;11.030;2023-04-25T02:08:17;7.78;;;5.50;;
68225;SDS011;55045;49.410;11.030;2023-04-25T02:11:21;6.22;;;4.95;;
68225;SDS011;55045;49.410;11.030;2023-04-25T02:14:44;7.43;;;5.50;;
68225;SDS011;55045;49.410;11.030;2023-04-25T02:18:20;7.07;;;5.15;;
68225;SDS011;55045;49.410;11.030;2023-04-25T02:21:23;7.15;;;5.00;;
68225;SDS011;55045;49.410;11.030;2023-04-25T02:24:29;7.97;;;5.88;;
68225;SDS011;55045;49.410;11.030;2023-04-25T02:27:33;8.68;;;5.68;;
68225;SDS011;55045;49.410;11.030;2023-04-25T02:30:38;7.07;;;5.78;;
68225;SDS011;55045;49.410;11.030;2023-04-25T02:33:42;10.50;;;5.90;;
68225;SDS011;55045;49.410;11.030;2023-04-25T02:36:45;8.45;;;6.57;;
68225;SDS011;55045;49.410;11.030;2023-04-25T02:39:53;9.32;;;6.75;;
68225;SDS011;55045;49.410;11.030;2023-04-25T02:42:56;9.45;;;6.65;;
68225;SDS011;55045;49.410;11.030;2023-04-25T02:46:00;11.05;;;6.72;;
68225;SDS011;55045;49.410;11.030;2023-04-25T02:49:04;9.65;;;7.40;;
68225;SDS011;55045;49.410;11.030;2023-04-25T02:52:08;9.32;;;6.93;;
68225;SDS011;55045;49.410;11.030;2023-04-25T02:55:13;11.38;;;7.28;;
68225;SDS011;55045;49.410;11.030;2023-04-25T02:58:18;12.43;;;7.35;;
68225;SDS011;55045;49.410;11.030;2023-04-25T03:01:24;10.80;;;8.43;;
68225;SDS011;55045;49.410;11.030;2023-04-25T03:04:27;10.68;;;8.82;;
68225;SDS011;55045;49.410;11.030;2023-04-25T03:07:31;11.77;;;9.18;;
68225;SDS011;55045;49.410;11.030;2023-04-25T03:10:35;11.65;;;8.70;;
68225;SDS011;55045;49.410;11.030;2023-04-25T03:13:40;12.02;;;8.55;;
68225;SDS011;55045;49.410;11.030;2023-04-25T03:16:45;12.75;;;9.02;;
68225;SDS011;55045;49.410;11.030;2023-04-25T03:19:48;12.95;;;9.20;;
68225;SDS011;55045;49.410;11.030;2023-04-25T03:22:52;12.65;;;9.20;;
68225;SDS011;55045;49.410;11.030;2023-04-25T03:25:57;11.93;;;9.20;;
68225;SDS011;55045;49.410;11.030;2023-04-25T03:29:00;11.93;;;8.75;;
68225;SDS011;55045;49.410;11.030;2023-04-25T03:34:49;11.25;;;8.30;;
68225;SDS011;55045;49.410;11.030;2023-04-25T03:37:52;13.52;;;9.15;;
68225;SDS011;55045;49.410;11.030;2023-04-25T03:41:01;15.43;;;10.38;;
68225;SDS011;55045;49.410;11.030;2023-04-25T03:44:21;14.40;;;9.27;;
68225;SDS011;55045;49.410;11.030;2023-04-25T03:47:26;12.27;;;8.90;;
68225;SDS011;55045;49.410;11.030;2023-04-25T03:50:31;12.30;;;9.80;;
68225;SDS011;55045;49.410;11.030;2023-04-25T03:53:35;13.15;;;8.63;;
68225;SDS011;55045;49.410;11.030;2023-04-25T03:56:54;13.40;;;9.68;;
68225;SDS011;55045;49.410;11.030;2023-04-25T04:00:01;10.93;;;8.57;;
68225;SDS011;55045;49.410;11.030;2023-04-25T04:03:14;11.15;;;7.93;;
68225;SDS011;55045;49.410;11.030;2023-04-25T04:06:19;12.23;;;8.38;;
68225;SDS011;55045;49.410;11.030;2023-04-25T04:09:28;12.60;;;7.95;;
68225;SDS011;55045;49.410;11.030;2023-04-25T04:12:33;11.52;;;7.43;;
68225;SDS011;55045;49.410;11.030;2023-04-25T04:15:37;10.63;;;8.02;;
68225;SDS011;55045;49.410;11.030;2023-04-25T04:18:40;10.25;;;7.45;;
68225;SDS011;55045;49.410;11.030;2023-04-25T04:21:45;10.88;;;7.28;;
68225;SDS011;55045;49.410;11.030;2023-04-25T04:24:48;12.75;;;8.13;;
68225;SDS011;55045;49.410;11.030;2023-04-25T04:28:24;10.40;;;8.05;;
68225;SDS011;55045;49.410;11.030;2023-04-25T04:31:36;12.40;;;7.45;;
68225;SDS011;55045;49.410;11.030;2023-04-25T04:34:40;10.65;;;7.43;;
68225;SDS011;55045;49.410;11.030;2023-04-25T04:37:48;9.40;;;6.95;;
68225;SDS011;55045;49.410;11.030;2023-04-25T04:40:53;11.85;;;7.75;;
68225;SDS011;55045;49.410;11.030;2023-04-25T04:44:14;11.57;;;8.02;;
68225;SDS011;55045;49.410;11.030;2023-04-25T04:47:39;11.38;;;7.47;;
68225;SDS011;55045;49.410;11.030;2023-04-25T04:50:53;9.85;;;7.15;;
68225;SDS011;55045;49.410;11.030;2023-04-25T04:54:17;10.82;;;8.07;;
68225;SDS011;55045;49.410;11.030;2023-04-25T04:57:44;11.50;;;7.60;;
68225;SDS011;55045;49.410;11.030;2023-04-25T05:01:07;11.93;;;8.35;;
68225;SDS011;55045;49.410;11.030;2023-04-25T05:04:29;11.73;;;8.20;;
68225;SDS011;55045;49.410;11.030;2023-04-25T05:07:40;12.77;;;7.93;;
68225;SDS011;55045;49.410;11.030;2023-04-25T05:11:20;12.93;;;8.38;;
68225;SDS011;55045;49.410;11.030;2023-04-25T05:14:44;11.00;;;8.10;;
68225;SDS011;55045;49.410;11.030;2023-04-25T05:18:06;10.23;;;8.15;;
68225;SDS011;55045;49.410;11.030;2023-04-25T05:21:28;10.27;;;8.20;;
68225;SDS011;55045;49.410;11.030;2023-04-25T05:25:03;12.65;;;8.90;;
68225;SDS011;55045;49.410;11.030;2023-04-25T05:28:25;12.73;;;8.82;;
68225;SDS011;55045;49.410;11.030;2023-04-25T05:31:47;11.07;;;8.07;;
68225;SDS011;55045;49.410;11.030;2023-04-25T05:34:51;10.50;;;8.00;;
68225;SDS011;55045;49.410;11.030;2023-04-25T05:38:10;11.65;;;8.60;;
68225;SDS011;55045;49.410;11.030;2023-04-25T05:41:46;11.68;;;8.43;;
68225;SDS011;55045;49.410;11.030;2023-04-25T05:45:13;11.10;;;8.18;;
68225;SDS011;55045;49.410;11.030;2023-04-25T05:48:40;11.18;;;8.75;;
68225;SDS011;55045;49.410;11.030;2023-04-25T05:51:55;12.02;;;8.80;;
68225;SDS011;55045;49.410;11.030;2023-04-25T05:55:30;10.63;;;8.00;;
68225;SDS011;55045;49.410;11.030;2023-04-25T05:58:37;12.27;;;8.07;;
68225;SDS011;55045;49.410;11.030;2023-04-25T06:01:42;12.23;;;9.00;;
68225;SDS011;55045;49.410;11.030;2023-04-25T06:04:45;11.73;;;7.95;;
68225;SDS011;55045;49.410;11.030;2023-04-25T06:07:50;13.85;;;8.70;;
68225;SDS011;55045;49.410;11.030;2023-04-25T06:10:53;10.13;;;7.80;;
68225;SDS011;55045;49.410;11.030;2023-04-25T06:13:57;12.25;;;8.55;;
68225;SDS011;55045;49.410;11.030;2023-04-25T06:17:02;10.13;;;7.68;;
68225;SDS011;55045;49.410;11.030;2023-04-25T06:20:08;11.38;;;8.70;;
68225;SDS011;55045;49.410;11.030;2023-04-25T06:23:14;12.65;;;8.60;;
68225;SDS011;55045;49.410;11.030;2023-04-25T06:26:26;11.77;;;8.10;;
68225;SDS011;55045;49.410;11.030;2023-04-25T06:29:29;10.48;;;8.05;;
68225;SDS011;55045;49.410;11.030;2023-04-25T06:32:34;13.20;;;8.60;;
68225;SDS011;55045;49.410;11.030;2023-04-25T06:35:38;12.77;;;8.63;;
68225;SDS011;55045;49.410;11.030;2023-04-25T06:38:45;12.83;;;9.07;;
68225;SDS011;55045;49.410;11.030;2023-04-25T06:41:49;13.80;;;8.95;;
68225;SDS011;55045;49.410;11.030;2023-04-25T06:45:12;12.10;;;8.15;;
68225;SDS011;55045;49.410;11.030;2023-04-25T06:48:17;15.57;;;10.02;;
68225;SDS011;55045;49.410;11.030;2023-04-25T06:51:20;13.70;;;9.25;;
68225;SDS011;55045;49.410;11.030;2023-04-25T06:54:28;13.65;;;8.65;;
68225;SDS011;55045;49.410;11.030;2023-04-25T06:57:40;16.17;;;10.35;;
68225;SDS011;55045;49.410;11.030;2023-04-25T07:01:09;14.93;;;9.45;;
68225;SDS011;55045;49.410;11.030;2023-04-25T07:04:14;14.23;;;10.20;;
68225;SDS011;55045;49.410;11.030;2023-04-25T07:07:28;13.95;;;10.10;;
68225;SDS011;55045;49.410;11.030;2023-04-25T07:10:33;14.00;;;9.60;;
68225;SDS011;55045;49.410;11.030;2023-04-25T07:13:37;16.65;;;9.57;;
68225;SDS011;55045;49.410;11.030;2023-04-25T07:16:41;11.20;;;8.55;;
68225;SDS011;55045;49.410;11.030;2023-04-25T07:19:46;11.68;;;8.98;;
68225;SDS011;55045;49.410;11.030;2023-04-25T07:22:49;13.18;;;8.55;;
68225;SDS011;55045;49.410;11.030;2023-04-25T07:25:53;10.38;;;7.45;;
68225;SDS011;55045;49.410;11.030;2023-04-25T07:28:59;9.75;;;6.43;;
68225;SDS011;55045;49.410;11.030;2023-04-25T07:32:03;10.93;;;6.05;;
68225;SDS011;55045;49.410;11.030;2023-04-25T07:35:10;7.78;;;6.13;;
68225;SDS011;55045;49.410;11.030;2023-04-25T07:38:13;7.25;;;4.22;;
68225;SDS011;55045;49.410;11.030;2023-04-25T07:41:16;7.22;;;4.68;;
68225;SDS011;55045;49.410;11.030;2023-04-25T07:44:20;6.93;;;4.85;;
68225;SDS011;55045;49.410;11.030;2023-04-25T07:47:24;6.10;;;4.20;;
68225;SDS011;55045;49.410;11.030;2023-04-25T07:50:29;6.10;;;4.65;;
68225;SDS011;55045;49.410;11.030;2023-04-25T07:53:32;9.15;;;5.32;;
68225;SDS011;55045;49.410;11.030;2023-04-25T07:56:41;8.15;;;5.35;;
68225;SDS011;55045;49.410;11.030;2023-04-25T07:59:54;9.52;;;6.25;;
68225;SDS011;55045;49.410;11.030;2023-04-25T08:02:58;8.80;;;6.70;;
68225;SDS011;55045;49.410;11.030;2023-04-25T08:06:03;9.77;;;5.93;;
68225;SDS011;55045;49.410;11.030;2023-04-25T08:09:15;9.05;;;6.43;;
68225;SDS011;55045;49.410;11.030;2023-04-25T08:12:19;7.30;;;5.07;;
68225;SDS011;55045;49.410;11.030;2023-04-25T08:15:25;9.07;;;5.15;;
68225;SDS011;55045;49.410;11.030;2023-04-25T08:18:28;9.23;;;5.55;;
68225;SDS011;55045;49.410;11.030;2023-04-25T08:21:34;6.63;;;4.95;;
68225;SDS011;55045;49.410;11.030;2023-04-25T08:27:44;7.38;;;4.88;;
68225;SDS011;55045;49.410;11.030;2023-04-25T08:30:47;7.25;;;4.93;;
68225;SDS011;55045;49.410;11.030;2023-04-25T08:33:52;7.10;;;5.40;;
68225;SDS011;55045;49.410;11.030;2023-04-25T08:37:04;9.00;;;5.35;;
68225;SDS011;55045;49.410;11.030;2023-04-25T08:40:14;7.93;;;5.22;;
68225;SDS011;55045;49.410;11.030;2023-04-25T08:43:19;6.63;;;4.80;;
68225;SDS011;55045;49.410;11.030;2023-04-25T08:46:22;8.65;;;5.22;;
68225;SDS011;55045;49.410;11.030;2023-04-25T08:49:44;6.15;;;5.05;;
68225;SDS011;55045;49.410;11.030;2023-04-25T08:52:51;9.82;;;5.60;;
68225;SDS011;55045;49.410;11.030;2023-04-25T08:55:58;23.77;;;12.97;;
68225;SDS011;55045;49.410;11.030;2023-04-25T08:59:05;9.25;;;5.95;;
68225;SDS011;55045;49.410;11.030;2023-04-25T09:02:11;7.97;;;5.50;;
68225;SDS011;55045;49.410;11.030;2023-04-25T09:05:16;7.13;;;5.78;;
68225;SDS011;55045;49.410;11.030;2023-04-25T09:08:27;9.18;;;5.93;;
68225;SDS011;55045;49.410;11.030;2023-04-25T09:11:31;9.85;;;6.10;;
68225;SDS011;55045;49.410;11.030;2023-04-25T09:14:38;8.88;;;6.00;;
68225;SDS011;55045;49.410;11.030;2023-04-25T09:17:55;8.55;;;5.93;;
68225;SDS011;55045;49.410;11.030;2023-04-25T09:21:07;8.63;;;6.05;;
68225;SDS011;55045;49.410;11.030;2023-04-25T09:24:20;11.43;;;7.80;;
68225;SDS011;55045;49.410;11.030;2023-04-25T09:27:36;10.33;;;6.63;;
68225;SDS011;55045;49.410;11.030;2023-04-25T09:34:49;9.57;;;6.57;;
68225;SDS011;55045;49.410;11.030;2023-04-25T09:37:55;8.83;;;6.33;;
68225;SDS011;55045;49.410;11.030;2023-04-25T09:41:22;8.30;;;6.68;;
68225;SDS011;55045;49.410;11.030;2023-04-25T09:44:28;8.27;;;5.88;;
68225;SDS011;55045;49.410;11.030;2023-04-25T09:47:32;9.32;;;5.65;;
68225;SDS011;55045;49.410;11.030;2023-04-25T09:50:43;8.98;;;4.95;;
68225;SDS011;55045;49.410;11.030;2023-04-25T09:53:47;8.20;;;5.50;;
68225;SDS011;55045;49.410;11.030;2023-04-25T09:57:14;6.95;;;5.70;;
68225;SDS011;55045;49.410;11.030;2023-04-25T10:00:19;9.00;;;6.40;;
68225;SDS011;55045;49.410;11.030;2023-04-25T10:03:24;10.20;;;6.80;;
68225;SDS011;55045;49.410;11.030;2023-04-25T10:06:42;8.73;;;6.60;;
68225;SDS011;55045;49.410;11.030;2023-04-25T10:09:47;9.38;;;6.22;;
68225;SDS011;55045;49.410;11.030;2023-04-25T10:12:52;11.65;;;6.13;;
68225;SDS011;55045;49.410;11.030;2023-04-25T10:15:57;10.13;;;7.10;;
68225;SDS011;55045;49.410;11.030;2023-04-25T10:19:00;7.40;;;6.10;;
68225;SDS011;55045;49.410;11.030;2023-04-25T10:22:07;8.30;;;6.55;;
68225;SDS011;55045;49.410;11.030;2023-04-25T10:25:17;9.48;;;6.00;;
68225;SDS011;55045;49.410;11.030;2023-04-25T10:28:21;8.93;;;5.88;;
68225;SDS011;55045;49.410;11.030;2023-04-25T10:31:24;9.07;;;5.82;;
68225;SDS011;55045;49.410;11.030;2023-04-25T10:34:37;8.13;;;5.78;;
68225;SDS011;55045;49.410;11.030;2023-04-25T10:37:57;8.40;;;5.07;;
68225;SDS011;55045;49.410;11.030;2023-04-25T10:41:05;6.30;;;4.80;;
68225;SDS011;55045;49.410;11.030;2023-04-25T10:44:11;8.20;;;5.30;;
68225;SDS011;55045;49.410;11.030;2023-04-25T10:47:14;8.35;;;5.40;;
68225;SDS011;55045;49.410;11.030;2023-04-25T10:50:38;6.50;;;3.92;;
68225;SDS011;55045;49.410;11.030;2023-04-25T10:53:44;9.98;;;3.53;;
68225;SDS011;55045;49.410;11.030;2023-04-25T10:56:48;8.82;;;3.20;;
68225;SDS011;55045;49.410;11.030;2023-04-25T10:59:57;4.80;;;2.90;;
68225;SDS011;55045;49.410;11.030;2023-04-25T11:03:02;3.30;;;2.53;;
68225;SDS011;55045;49.410;11.030;2023-04-25T11:06:07;4.43;;;2.83;;
68225;SDS011;55045;49.410;11.030;2023-04-25T11:09:19;7.97;;;3.17;;
68225;SDS011;55045;49.410;11.030;2023-04-25T11:12:27;5.70;;;2.78;;
68225;SDS011;55045;49.410;11.030;2023-04-25T11:15:30;4.97;;;2.80;;
68225;SDS011;55045;49.410;11.030;2023-04-25T11:18:33;4.43;;;2.35;;
68225;SDS011;55045;49.410;11.030;2023-04-25T11:21:37;3.95;;;2.63;;
68225;SDS011;55045;49.410;11.030;2023-04-25T11:24:41;3.95;;;2.30;;
68225;SDS011;55045;49.410;11.030;2023-04-25T11:27:51;3.72;;;2.50;;
68225;SDS011;55045;49.410;11.030;2023-04-25T11:30:55;5.05;;;2.40;;
68225;SDS011;55045;49.410;11.030;2023-04-25T11:33:58;2.38;;;2.13;;
68225;SDS011;55045;49.410;11.030;2023-04-25T11:37:02;2.53;;;1.80;;
68225;SDS011;55045;49.410;11.030;2023-04-25T11:40:08;2.47;;;1.88;;
68225;SDS011;55045;49.410;11.030;2023-04-25T11:43:13;2.88;;;1.50;;
68225;SDS011;55045;49.410;11.030;2023-04-25T11:46:17;2.28;;;1.40;;
68225;SDS011;55045;49.410;11.030;2023-04-25T11:49:22;4.20;;;1.52;;
68225;SDS011;55045;49.410;11.030;2023-04-25T11:52:35;3.40;;;1.90;;
68225;SDS011;55045;49.410;11.030;2023-04-25T11:55:43;4.93;;;1.70;;
68225;SDS011;55045;49.410;11.030;2023-04-25T12:02:09;5.13;;;1.60;;
68225;SDS011;55045;49.410;11.030;2023-04-25T12:05:14;3.05;;;1.60;;
68225;SDS011;55045;49.410;11.030;2023-04-25T12:08:33;1.60;;;1.50;;
68225;SDS011;55045;49.410;11.030;2023-04-25T12:11:44;2.70;;;1.55;;
68225;SDS011;55045;49.410;11.030;2023-04-25T12:14:48;1.65;;;1.50;;
68225;SDS011;55045;49.410;11.030;2023-04-25T12:17:52;1.55;;;1.40;;
68225;SDS011;55045;49.410;11.030;2023-04-25T12:20:57;2.58;;;1.60;;
68225;SDS011;55045;49.410;11.030;2023-04-25T12:24:09;1.60;;;1.45;;
68225;SDS011;55045;49.410;11.030;2023-04-25T12:27:15;2.95;;;1.80;;
68225;SDS011;55045;49.410;11.030;2023-04-25T12:30:20;1.65;;;1.55;;
68225;SDS011;55045;49.410;11.030;2023-04-25T12:33:24;3.30;;;1.70;;
68225;SDS011;55045;49.410;11.030;2023-04-25T12:36:27;1.70;;;1.60;;
68225;SDS011;55045;49.410;11.030;2023-04-25T12:39:30;2.30;;;1.50;;
68225;SDS011;55045;49.410;11.030;2023-04-25T12:42:35;2.08;;;1.70;;
68225;SDS011;55045;49.410;11.030;2023-04-25T12:45:39;1.92;;;1.70;;
68225;SDS011;55045;49.410;11.030;2023-04-25T12:48:42;2.47;;;1.90;;
68225;SDS011;55045;49.410;11.030;2023-04-25T12:51:45;3.65;;;1.92;;
68225;SDS011;55045;49.410;11.030;2023-04-25T12:54:49;3.85;;;1.80;;
68225;SDS011;55045;49.410;11.030;2023-04-25T12:57:54;3.13;;;1.80;;
68225;SDS011;55045;49.410;11.030;2023-04-25T13:00:57;3.38;;;2.00;;
68225;SDS011;55045;49.410;11.030;2023-04-25T13:04:00;3.33;;;1.90;;
68225;SDS011;55045;49.410;11.030;2023-04-25T13:07:04;2.00;;;1.80;;
68225;SDS011;55045;49.410;11.030;2023-04-25T13:10:08;2.97;;;1.77;;
68225;SDS011;55045;49.410;11.030;2023-04-25T13:13:13;2.35;;;1.90;;
68225;SDS011;55045;49.410;11.030;2023-04-25T13:16:18;3.00;;;2.30;;
68225;SDS011;55045;49.410;11.030;2023-04-25T13:19:22;3.92;;;2.30;;
68225;SDS011;55045;49.410;11.030;2023-04-25T13:22:27;5.40;;;2.58;;
68225;SDS011;55045;49.410;11.030;2023-04-25T13:25:30;2.42;;;2.20;;
68225;SDS011;55045;49.410;11.030;2023-04-25T13:28:35;2.60;;;2.10;;
68225;SDS011;55045;49.410;11.030;2023-04-25T13:31:38;2.92;;;1.90;;
68225;SDS011;55045;49.410;11.030;2023-04-25T13:34:42;2.50;;;1.92;;
68225;SDS011;55045;49.410;11.030;2023-04-25T13:37:45;2.88;;;1.92;;
68225;SDS011;55045;49.410;11.030;2023-04-25T13:40:48;2.30;;;2.05;;
68225;SDS011;55045;49.410;11.030;2023-04-25T13:43:55;3.58;;;1.77;;
68225;SDS011;55045;49.410;11.030;2023-04-25T13:46:58;3.75;;;2.38;;
68225;SDS011;55045;49.410;11.030;2023-04-25T13:50:08;3.83;;;2.08;;
68225;SDS011;55045;49.410;11.030;2023-04-25T13:53:12;3.75;;;2.28;;
68225;SDS011;55045;49.410;11.030;2023-04-25T13:56:16;3.58;;;2.60;;
68225;SDS011;55045;49.410;11.030;2023-04-25T13:59:22;2.45;;;2.22;;
68225;SDS011;55045;49.410;11.030;2023-04-25T14:02:25;5.47;;;2.15;;
68225;SDS011;55045;49.410;11.030;2023-04-25T14:05:29;6.10;;;2.35;;
68225;SDS011;55045;49.410;11.030;2023-04-25T14:08:32;3.72;;;2.60;;
68225;SDS011;55045;49.410;11.030;2023-04-25T14:11:35;3.67;;;2.35;;
68225;SDS011;55045;49.410;11.030;2023-04-25T14:14:40;3.50;;;2.65;;
68225;SDS011;55045;49.410;11.030;2023-04-25T14:17:43;4.63;;;2.47;;
68225;SDS011;55045;49.410;11.030;2023-04-25T14:20:47;4.68;;;2.97;;
68225;SDS011;55045;49.410;11.030;2023-04-25T14:23:50;4.70;;;2.75;;
68225;SDS011;55045;49.410;11.030;2023-04-25T14:26:54;4.10;;;2.60;;
68225;SDS011;55045;49.410;11.030;2023-04-25T14:29:59;5.05;;;2.58;;
68225;SDS011;55045;49.410;11.030;2023-04-25T14:33:03;4.47;;;2.67;;
68225;SDS011;55045;49.410;11.030;2023-04-25T14:36:07;6.60;;;2.58;;
68225;SDS011;55045;49.410;11.030;2023-04-25T14:39:10;5.45;;;2.72;;
68225;SDS011;55045;49.410;11.030;2023-04-25T14:42:14;4.03;;;2.72;;
68225;SDS011;55045;49.410;11.030;2023-04-25T14:45:19;4.07;;;2.80;;
68225;SDS011;55045;49.410;11.030;2023-04-25T14:48:22;3.60;;;2.50;;
68225;SDS011;55045;49.410;11.030;2023-04-25T14:51:26;13.75;;;5.45;;
68225;SDS011;55045;49.410;11.030;2023-04-25T14:54:29;4.65;;;2.85;;
68225;SDS011;55045;49.410;11.030;2023-04-25T14:57:33;4.35;;;3.08;;
68225;SDS011;55045;49.410;11.030;2023-04-25T15:00:38;3.63;;;2.85;;
68225;SDS011;55045;49.410;11.030;2023-04-25T15:03:42;5.57;;;3.05;;
68225;SDS011;55045;49.410;11.030;2023-04-25T15:06:45;3.78;;;2.80;;
68225;SDS011;55045;49.410;11.030;2023-04-25T15:09:49;5.43;;;2.80;;
68225;SDS011;55045;49.410;11.030;2023-04-25T15:12:54;5.32;;;2.70;;
68225;SDS011;55045;49.410;11.030;2023-04-25T15:15:59;5.88;;;3.05;;
68225;SDS011;55045;49.410;11.030;2023-04-25T15:19:02;5.10;;;2.90;;
68225;SDS011;55045;49.410;11.030;2023-04-25T15:22:05;4.10;;;2.85;;
68225;SDS011;55045;49.410;11.030;2023-04-25T15:25:09;6.38;;;3.20;;
68225;SDS011;55045;49.410;11.030;2023-04-25T15:28:13;4.07;;;3.10;;
68225;SDS011;55045;49.410;11.030;2023-04-25T15:34:52;8.10;;;2.88;;
68225;SDS011;55045;49.410;11.030;2023-04-25T15:40:58;5.10;;;3.05;;
68225;SDS011;55045;49.410;11.030;2023-04-25T15:44:01;5.68;;;3.10;;
68225;SDS011;55045;49.410;11.030;2023-04-25T15:47:05;6.93;;;3.33;;
68225;SDS011;55045;49.410;11.030;2023-04-25T15:50:10;4.43;;;3.38;;
68225;SDS011;55045;49.410;11.030;2023-04-25T15:53:18;5.53;;;3.30;;
68225;SDS011;55045;49.410;11.030;2023-04-25T15:56:21;5.38;;;3.22;;
68225;SDS011;55045;49.410;11.030;2023-04-25T15:59:24;6.63;;;3.10;;
68225;SDS011;55045;49.410;11.030;2023-04-25T16:02:28;5.68;;;2.90;;
68225;SDS011;55045;49.410;11.030;2023-04-25T16:05:34;5.70;;;3.35;;
68225;SDS011;55045;49.410;11.030;2023-04-25T16:08:37;6.45;;;3.42;;
68225;SDS011;55045;49.410;11.030;2023-04-25T16:11:40;6.60;;;3.00;;
68225;SDS011;55045;49.410;11.030;2023-04-25T16:14:44;4.03;;;2.90;;
68225;SDS011;55045;49.410;11.030;2023-04-25T16:17:47;4.53;;;3.17;;
68225;SDS011;55045;49.410;11.030;2023-04-25T16:20:52;7.05;;;3.03;;
68225;SDS011;55045;49.410;11.030;2023-04-25T16:23:55;3.90;;;2.83;;
68225;SDS011;55045;49.410;11.030;2023-04-25T16:26:59;6.13;;;3.35;;
68225;SDS011;55045;49.410;11.030;2023-04-25T16:30:04;8.18;;;2.78;;
68225;SDS011;55045;49.410;11.030;2023-04-25T16:33:09;4.40;;;2.70;;
68225;SDS011;55045;49.410;11.030;2023-04-25T16:36:14;4.35;;;2.90;;
68225;SDS011;55045;49.410;11.030;2023-04-25T16:39:17;3.13;;;2.45;;
68225;SDS011;55045;49.410;11.030;2023-04-25T16:42:23;4.45;;;2.80;;
68225;SDS011;55045;49.410;11.030;2023-04-25T16:45:26;5.43;;;3.20;;
68225;SDS011;55045;49.410;11.030;2023-04-25T16:48:29;5.00;;;2.85;;
68225;SDS011;55045;49.410;11.030;2023-04-25T16:51:34;7.00;;;3.10;;
68225;SDS011;55045;49.410;11.030;2023-04-25T16:54:37;3.42;;;2.53;;
68225;SDS011;55045;49.410;11.030;2023-04-25T16:57:41;6.10;;;2.67;;
68225;SDS011;55045;49.410;11.030;2023-04-25T17:00:44;6.57;;;2.60;;
68225;SDS011;55045;49.410;11.030;2023-04-25T17:03:49;5.15;;;2.92;;
68225;SDS011;55045;49.410;11.030;2023-04-25T17:06:54;3.78;;;2.78;;
68225;SDS011;55045;49.410;11.030;2023-04-25T17:09:58;9.05;;;5.22;;
68225;SDS011;55045;49.410;11.030;2023-04-25T17:13:02;3.33;;;2.75;;
68225;SDS011;55045;49.410;11.030;2023-04-25T17:16:05;3.95;;;3.17;;
68225;SDS011;55045;49.410;11.030;2023-04-25T17:19:11;5.55;;;2.55;;
68225;SDS011;55045;49.410;11.030;2023-04-25T17:22:16;6.78;;;2.88;;
68225;SDS011;55045;49.410;11.030;2023-04-25T17:25:19;4.07;;;2.55;;
68225;SDS011;55045;49.410;11.030;2023-04-25T17:28:22;6.85;;;2.45;;
68225;SDS011;55045;49.410;11.030;2023-04-25T17:31:25;4.38;;;2.75;;
68225;SDS011;55045;49.410;11.030;2023-04-25T17:34:29;6.57;;;2.90;;
68225;SDS011;55045;49.410;11.030;2023-04-25T17:37:33;6.45;;;2.92;;
68225;SDS011;55045;49.410;11.030;2023-04-25T17:40:37;8.15;;;3.13;;
68225;SDS011;55045;49.410;11.030;2023-04-25T17:43:40;5.40;;;3.28;;
68225;SDS011;55045;49.410;11.030;2023-04-25T17:46:43;3.35;;;2.55;;
68225;SDS011;55045;49.410;11.030;2023-04-25T17:49:47;8.85;;;3.25;;
68225;SDS011;55045;49.410;11.030;2023-04-25T17:52:54;7.90;;;2.72;;
68225;SDS011;55045;49.410;11.030;2023-04-25T17:55:57;6.15;;;3.05;;
68225;SDS011;55045;49.410;11.030;2023-04-25T17:59:01;5.45;;;3.20;;
68225;SDS011;55045;49.410;11.030;2023-04-25T18:02:05;4.22;;;2.90;;
68225;SDS011;55045;49.410;11.030;2023-04-25T18:05:09;5.75;;;3.03;;
68225;SDS011;55045;49.410;11.030;2023-04-25T18:08:14;8.13;;;3.38;;
68225;SDS011;55045;49.410;11.030;2023-04-25T18:11:17;5.30;;;3.13;;
68225;SDS011;55045;49.410;11.030;2023-04-25T18:14:21;8.30;;;3.22;;
68225;SDS011;55045;49.410;11.030;2023-04-25T18:17:25;8.90;;;3.58;;
68225;SDS011;55045;49.410;11.030;2023-04-25T18:20:29;4.75;;;2.92;;
68225;SDS011;55045;49.410;11.030;2023-04-25T18:23:34;4.95;;;2.85;;
68225;SDS011;55045;49.410;11.030;2023-04-25T18:26:38;9.82;;;4.18;;
68225;SDS011;55045;49.410;11.030;2023-04-25T18:29:42;7.20;;;2.97;;
68225;SDS011;55045;49.410;11.030;2023-04-25T18:32:46;11.43;;;3.63;;
68225;SDS011;55045;49.410;11.030;2023-04-25T18:35:49;5.13;;;3.40;;
68225;SDS011;55045;49.410;11.030;2023-04-25T18:38:57;7.07;;;3.22;;
68225;SDS011;55045;49.410;11.030;2023-04-25T18:42:04;6.15;;;3.20;;
68225;SDS011;55045;49.410;11.030;2023-04-25T18:45:08;8.57;;;3.78;;